sensor_id;sensor_type;location;lat;lon;timestamp;P1;durP1;ratioP1;P2;durP2;ratioP2
26359;SDS011;14063;41.426;13.854;2023-01-09T00:01:58;354.37;;;55.47;;
26359;SDS011;14063;41.426;13.854;2023-01-09T00:04:24;355.83;;;55.53;;
26359;SDS011;14063;41.426;13.854;2023-01-09T00:06:51;353.70;;;55.27;;
26359;SDS011;14063;41.426;13.854;2023-01-09T00:09:21;349.57;;;58.80;;
26359;SDS011;14063;41.426;13.854;2023-01-09T00:11:47;356.27;;;56.33;;
26359;SDS011;14063;41.426;13.854;2023-01-09T00:14:14;361.67;;;56.90;;
26359;SDS011;14063;41.426;13.854;2023-01-09T00:16:40;355.40;;;55.53;;
26359;SDS011;14063;41.426;13.854;2023-01-09T00:19:06;355.60;;;56.00;;
26359;SDS011;14063;41.426;13.854;2023-01-09T00:21:33;358.07;;;55.90;;
26359;SDS011;14063;41.426;13.854;2023-01-09T00:23:59;354.67;;;55.17;;
26359;SDS011;14063;41.426;13.854;2023-01-09T00:26:25;358.27;;;57.20;;
26359;SDS011;14063;41.426;13.854;2023-01-09T00:28:51;354.17;;;55.73;;
26359;SDS011;14063;41.426;13.854;2023-01-09T00:31:18;352.67;;;55.80;;
26359;SDS011;14063;41.426;13.854;2023-01-09T00:33:47;348.63;;;62.47;;
26359;SDS011;14063;41.426;13.854;2023-01-09T00:36:15;355.70;;;55.67;;
26359;SDS011;14063;41.426;13.854;2023-01-09T00:38:41;355.67;;;55.77;;
26359;SDS011;14063;41.426;13.854;2023-01-09T00:41:09;356.27;;;56.20;;
26359;SDS011;14063;41.426;13.854;2023-01-09T00:43:39;354.60;;;55.60;;
26359;SDS011;14063;41.426;13.854;2023-01-09T00:46:06;356.27;;;55.63;;
26359;SDS011;14063;41.426;13.854;2023-01-09T00:48:33;356.97;;;56.33;;
26359;SDS011;14063;41.426;13.854;2023-01-09T00:51:00;357.07;;;56.43;;
26359;SDS011;14063;41.426;13.854;2023-01-09T00:53:28;356.73;;;55.70;;
26359;SDS011;14063;41.426;13.854;2023-01-09T00:56:00;356.90;;;55.83;;
26359;SDS011;14063;41.426;13.854;2023-01-09T00:58:30;354.73;;;55.30;;
26359;SDS011;14063;41.426;13.854;2023-01-09T01:00:57;358.90;;;56.90;;
26359;SDS011;14063;41.426;13.854;2023-01-09T01:03:24;357.17;;;55.73;;
26359;SDS011;14063;41.426;13.854;2023-01-09T01:05:51;354.37;;;55.93;;
26359;SDS011;14063;41.426;13.854;2023-01-09T01:08:36;352.13;;;55.13;;
26359;SDS011;14063;41.426;13.854;2023-01-09T01:11:03;353.87;;;55.80;;
26359;SDS011;14063;41.426;13.854;2023-01-09T01:13:30;352.87;;;56.23;;
26359;SDS011;14063;41.426;13.854;2023-01-09T01:15:56;352.40;;;55.87;;
26359;SDS011;14063;41.426;13.854;2023-01-09T01:18:23;352.73;;;56.03;;
26359;SDS011;14063;41.426;13.854;2023-01-09T01:20:49;344.83;;;57.33;;
26359;SDS011;14063;41.426;13.854;2023-01-09T01:23:15;358.67;;;57.17;;
26359;SDS011;14063;41.426;13.854;2023-01-09T01:25:42;354.70;;;55.77;;
26359;SDS011;14063;41.426;13.854;2023-01-09T01:28:08;348.10;;;61.57;;
26359;SDS011;14063;41.426;13.854;2023-01-09T01:30:38;353.67;;;56.97;;
26359;SDS011;14063;41.426;13.854;2023-01-09T01:33:05;353.17;;;55.77;;
26359;SDS011;14063;41.426;13.854;2023-01-09T01:35:31;342.60;;;61.97;;
26359;SDS011;14063;41.426;13.854;2023-01-09T01:37:58;358.67;;;57.40;;
26359;SDS011;14063;41.426;13.854;2023-01-09T01:40:24;351.93;;;56.20;;
26359;SDS011;14063;41.426;13.854;2023-01-09T01:42:51;351.07;;;56.17;;
26359;SDS011;14063;41.426;13.854;2023-01-09T01:45:28;351.80;;;56.40;;
26359;SDS011;14063;41.426;13.854;2023-01-09T01:50:42;350.37;;;55.83;;
26359;SDS011;14063;41.426;13.854;2023-01-09T01:53:11;353.70;;;56.10;;
26359;SDS011;14063;41.426;13.854;2023-01-09T01:55:40;350.37;;;55.00;;
26359;SDS011;14063;41.426;13.854;2023-01-09T01:58:08;342.93;;;57.57;;
26359;SDS011;14063;41.426;13.854;2023-01-09T02:00:39;344.60;;;58.07;;
26359;SDS011;14063;41.426;13.854;2023-01-09T02:03:07;354.17;;;56.80;;
26359;SDS011;14063;41.426;13.854;2023-01-09T02:05:33;354.07;;;56.90;;
26359;SDS011;14063;41.426;13.854;2023-01-09T02:08:01;352.07;;;57.47;;
26359;SDS011;14063;41.426;13.854;2023-01-09T02:10:28;350.50;;;55.90;;
26359;SDS011;14063;41.426;13.854;2023-01-09T02:12:55;345.90;;;55.70;;
26359;SDS011;14063;41.426;13.854;2023-01-09T02:15:22;350.50;;;60.90;;
26359;SDS011;14063;41.426;13.854;2023-01-09T02:25:42;350.30;;;56.20;;
26359;SDS011;14063;41.426;13.854;2023-01-09T02:35:52;351.00;;;55.70;;
26359;SDS011;14063;41.426;13.854;2023-01-09T02:38:22;346.30;;;54.53;;
26359;SDS011;14063;41.426;13.854;2023-01-09T02:41:05;347.03;;;57.83;;
26359;SDS011;14063;41.426;13.854;2023-01-09T02:43:34;345.03;;;53.87;;
26359;SDS011;14063;41.426;13.854;2023-01-09T02:46:04;351.17;;;56.20;;
26359;SDS011;14063;41.426;13.854;2023-01-09T02:48:35;345.83;;;54.87;;
26359;SDS011;14063;41.426;13.854;2023-01-09T03:03:48;340.63;;;58.40;;
26359;SDS011;14063;41.426;13.854;2023-01-09T03:06:29;348.80;;;55.50;;
26359;SDS011;14063;41.426;13.854;2023-01-09T03:08:59;350.13;;;54.90;;
26359;SDS011;14063;41.426;13.854;2023-01-09T03:11:29;354.43;;;55.40;;
26359;SDS011;14063;41.426;13.854;2023-01-09T03:14:01;350.47;;;55.43;;
26359;SDS011;14063;41.426;13.854;2023-01-09T03:16:30;350.20;;;54.87;;
26359;SDS011;14063;41.426;13.854;2023-01-09T03:18:57;351.73;;;55.03;;
26359;SDS011;14063;41.426;13.854;2023-01-09T03:21:24;346.27;;;54.27;;
26359;SDS011;14063;41.426;13.854;2023-01-09T03:26:17;347.87;;;54.43;;
26359;SDS011;14063;41.426;13.854;2023-01-09T03:28:44;343.63;;;55.37;;
26359;SDS011;14063;41.426;13.854;2023-01-09T03:31:11;348.40;;;55.67;;
26359;SDS011;14063;41.426;13.854;2023-01-09T03:33:37;344.67;;;56.90;;
26359;SDS011;14063;41.426;13.854;2023-01-09T03:36:04;352.53;;;55.03;;
26359;SDS011;14063;41.426;13.854;2023-01-09T03:38:30;351.43;;;55.83;;
26359;SDS011;14063;41.426;13.854;2023-01-09T03:40:57;344.27;;;57.00;;
26359;SDS011;14063;41.426;13.854;2023-01-09T03:43:24;351.23;;;56.03;;
26359;SDS011;14063;41.426;13.854;2023-01-09T03:45:51;345.90;;;59.97;;
26359;SDS011;14063;41.426;13.854;2023-01-09T03:48:19;353.37;;;56.60;;
26359;SDS011;14063;41.426;13.854;2023-01-09T03:50:49;352.33;;;61.90;;
26359;SDS011;14063;41.426;13.854;2023-01-09T03:53:16;347.00;;;54.13;;
26359;SDS011;14063;41.426;13.854;2023-01-09T03:55:44;347.13;;;55.23;;
26359;SDS011;14063;41.426;13.854;2023-01-09T03:58:11;353.27;;;55.43;;
26359;SDS011;14063;41.426;13.854;2023-01-09T04:00:37;353.23;;;54.80;;
26359;SDS011;14063;41.426;13.854;2023-01-09T04:03:05;354.73;;;55.47;;
26359;SDS011;14063;41.426;13.854;2023-01-09T04:05:31;361.13;;;56.97;;
26359;SDS011;14063;41.426;13.854;2023-01-09T04:07:58;360.13;;;56.73;;
26359;SDS011;14063;41.426;13.854;2023-01-09T04:10:25;354.67;;;55.53;;
26359;SDS011;14063;41.426;13.854;2023-01-09T04:12:52;355.20;;;55.10;;
26359;SDS011;14063;41.426;13.854;2023-01-09T04:15:18;354.60;;;58.60;;
26359;SDS011;14063;41.426;13.854;2023-01-09T04:17:44;351.83;;;55.17;;
26359;SDS011;14063;41.426;13.854;2023-01-09T04:20:11;348.90;;;59.60;;
26359;SDS011;14063;41.426;13.854;2023-01-09T04:22:37;357.70;;;57.10;;
26359;SDS011;14063;41.426;13.854;2023-01-09T04:25:03;351.50;;;55.50;;
26359;SDS011;14063;41.426;13.854;2023-01-09T04:27:30;350.20;;;56.37;;
26359;SDS011;14063;41.426;13.854;2023-01-09T04:29:56;348.97;;;57.93;;
26359;SDS011;14063;41.426;13.854;2023-01-09T04:32:22;353.10;;;59.10;;
26359;SDS011;14063;41.426;13.854;2023-01-09T04:34:48;355.17;;;55.47;;
26359;SDS011;14063;41.426;13.854;2023-01-09T04:37:14;358.17;;;56.00;;
26359;SDS011;14063;41.426;13.854;2023-01-09T04:39:41;356.63;;;55.80;;
26359;SDS011;14063;41.426;13.854;2023-01-09T04:42:08;354.17;;;56.17;;
26359;SDS011;14063;41.426;13.854;2023-01-09T04:44:34;357.27;;;56.07;;
26359;SDS011;14063;41.426;13.854;2023-01-09T04:47:00;372.03;;;58.80;;
26359;SDS011;14063;41.426;13.854;2023-01-09T04:49:26;361.57;;;55.90;;
26359;SDS011;14063;41.426;13.854;2023-01-09T04:51:52;355.70;;;55.63;;
26359;SDS011;14063;41.426;13.854;2023-01-09T04:54:19;358.63;;;56.47;;
26359;SDS011;14063;41.426;13.854;2023-01-09T04:56:45;357.20;;;59.87;;
26359;SDS011;14063;41.426;13.854;2023-01-09T04:59:11;364.43;;;57.60;;
26359;SDS011;14063;41.426;13.854;2023-01-09T05:01:37;362.00;;;57.20;;
26359;SDS011;14063;41.426;13.854;2023-01-09T05:04:04;360.87;;;56.13;;
26359;SDS011;14063;41.426;13.854;2023-01-09T05:06:30;360.63;;;59.93;;
26359;SDS011;14063;41.426;13.854;2023-01-09T05:08:56;361.00;;;55.97;;
26359;SDS011;14063;41.426;13.854;2023-01-09T05:11:23;361.80;;;57.00;;
26359;SDS011;14063;41.426;13.854;2023-01-09T05:13:50;360.97;;;57.07;;
26359;SDS011;14063;41.426;13.854;2023-01-09T05:16:16;362.97;;;57.40;;
26359;SDS011;14063;41.426;13.854;2023-01-09T05:18:42;359.50;;;61.70;;
26359;SDS011;14063;41.426;13.854;2023-01-09T05:21:08;361.43;;;57.07;;
26359;SDS011;14063;41.426;13.854;2023-01-09T05:23:35;359.93;;;57.43;;
26359;SDS011;14063;41.426;13.854;2023-01-09T05:26:01;361.57;;;56.30;;
26359;SDS011;14063;41.426;13.854;2023-01-09T05:28:28;368.83;;;58.63;;
26359;SDS011;14063;41.426;13.854;2023-01-09T05:30:55;364.00;;;57.97;;
26359;SDS011;14063;41.426;13.854;2023-01-09T05:33:21;368.17;;;58.50;;
26359;SDS011;14063;41.426;13.854;2023-01-09T05:35:47;361.10;;;63.63;;
26359;SDS011;14063;41.426;13.854;2023-01-09T05:38:14;361.73;;;57.20;;
26359;SDS011;14063;41.426;13.854;2023-01-09T05:40:40;362.63;;;57.47;;
26359;SDS011;14063;41.426;13.854;2023-01-09T05:43:06;371.33;;;58.77;;
26359;SDS011;14063;41.426;13.854;2023-01-09T05:45:33;364.87;;;57.53;;
26359;SDS011;14063;41.426;13.854;2023-01-09T05:47:59;366.53;;;57.70;;
26359;SDS011;14063;41.426;13.854;2023-01-09T05:50:26;366.73;;;59.23;;
26359;SDS011;14063;41.426;13.854;2023-01-09T05:52:52;365.57;;;58.00;;
26359;SDS011;14063;41.426;13.854;2023-01-09T05:55:18;375.93;;;59.70;;
26359;SDS011;14063;41.426;13.854;2023-01-09T05:57:45;361.60;;;61.33;;
26359;SDS011;14063;41.426;13.854;2023-01-09T06:00:11;371.70;;;59.47;;
26359;SDS011;14063;41.426;13.854;2023-01-09T06:02:37;373.33;;;59.17;;
26359;SDS011;14063;41.426;13.854;2023-01-09T06:05:04;365.70;;;57.90;;
26359;SDS011;14063;41.426;13.854;2023-01-09T06:07:30;362.70;;;57.47;;
26359;SDS011;14063;41.426;13.854;2023-01-09T06:09:58;366.73;;;57.93;;
26359;SDS011;14063;41.426;13.854;2023-01-09T06:12:25;361.03;;;57.20;;
26359;SDS011;14063;41.426;13.854;2023-01-09T06:14:51;363.47;;;68.73;;
26359;SDS011;14063;41.426;13.854;2023-01-09T06:17:17;369.73;;;63.43;;
26359;SDS011;14063;41.426;13.854;2023-01-09T06:19:43;368.30;;;59.77;;
26359;SDS011;14063;41.426;13.854;2023-01-09T06:22:10;372.33;;;59.43;;
26359;SDS011;14063;41.426;13.854;2023-01-09T06:24:36;372.77;;;60.70;;
26359;SDS011;14063;41.426;13.854;2023-01-09T06:27:02;367.73;;;58.47;;
26359;SDS011;14063;41.426;13.854;2023-01-09T06:29:30;366.40;;;57.90;;
26359;SDS011;14063;41.426;13.854;2023-01-09T06:31:56;371.90;;;58.90;;
26359;SDS011;14063;41.426;13.854;2023-01-09T06:34:23;370.57;;;59.20;;
26359;SDS011;14063;41.426;13.854;2023-01-09T06:36:49;371.10;;;59.13;;
26359;SDS011;14063;41.426;13.854;2023-01-09T06:39:15;372.20;;;61.53;;
26359;SDS011;14063;41.426;13.854;2023-01-09T06:41:41;366.50;;;58.47;;
26359;SDS011;14063;41.426;13.854;2023-01-09T06:44:09;365.30;;;58.00;;
26359;SDS011;14063;41.426;13.854;2023-01-09T06:46:35;365.50;;;58.10;;
26359;SDS011;14063;41.426;13.854;2023-01-09T06:49:02;373.03;;;60.90;;
26359;SDS011;14063;41.426;13.854;2023-01-09T06:51:28;365.40;;;58.83;;
26359;SDS011;14063;41.426;13.854;2023-01-09T06:53:54;360.37;;;62.90;;
26359;SDS011;14063;41.426;13.854;2023-01-09T06:56:20;364.37;;;58.00;;
26359;SDS011;14063;41.426;13.854;2023-01-09T06:58:46;366.53;;;58.73;;
26359;SDS011;14063;41.426;13.854;2023-01-09T07:01:13;367.50;;;58.83;;
26359;SDS011;14063;41.426;13.854;2023-01-09T07:03:39;364.83;;;58.93;;
26359;SDS011;14063;41.426;13.854;2023-01-09T07:06:05;366.77;;;58.93;;
26359;SDS011;14063;41.426;13.854;2023-01-09T07:08:31;362.17;;;57.10;;
26359;SDS011;14063;41.426;13.854;2023-01-09T07:10:58;362.13;;;57.70;;
26359;SDS011;14063;41.426;13.854;2023-01-09T07:13:24;358.77;;;57.50;;
26359;SDS011;14063;41.426;13.854;2023-01-09T07:15:50;359.77;;;57.93;;
26359;SDS011;14063;41.426;13.854;2023-01-09T07:18:17;363.40;;;58.13;;
26359;SDS011;14063;41.426;13.854;2023-01-09T07:20:44;363.13;;;58.23;;
26359;SDS011;14063;41.426;13.854;2023-01-09T07:23:11;354.07;;;63.07;;
26359;SDS011;14063;41.426;13.854;2023-01-09T07:25:37;360.03;;;59.00;;
26359;SDS011;14063;41.426;13.854;2023-01-09T07:28:04;361.87;;;58.80;;
26359;SDS011;14063;41.426;13.854;2023-01-09T07:30:30;358.57;;;58.70;;
26359;SDS011;14063;41.426;13.854;2023-01-09T07:32:57;355.17;;;62.37;;
26359;SDS011;14063;41.426;13.854;2023-01-09T07:35:23;356.20;;;59.50;;
26359;SDS011;14063;41.426;13.854;2023-01-09T07:37:49;354.10;;;58.40;;
26359;SDS011;14063;41.426;13.854;2023-01-09T07:40:16;354.90;;;59.00;;
26359;SDS011;14063;41.426;13.854;2023-01-09T07:42:42;354.67;;;58.20;;
26359;SDS011;14063;41.426;13.854;2023-01-09T07:45:08;354.43;;;58.93;;
26359;SDS011;14063;41.426;13.854;2023-01-09T07:47:35;355.90;;;59.20;;
26359;SDS011;14063;41.426;13.854;2023-01-09T07:50:01;351.13;;;59.97;;
26359;SDS011;14063;41.426;13.854;2023-01-09T07:52:27;349.77;;;59.53;;
26359;SDS011;14063;41.426;13.854;2023-01-09T07:54:53;356.53;;;63.73;;
26359;SDS011;14063;41.426;13.854;2023-01-09T07:57:19;360.33;;;60.13;;
26359;SDS011;14063;41.426;13.854;2023-01-09T07:59:45;357.87;;;60.20;;
26359;SDS011;14063;41.426;13.854;2023-01-09T08:02:12;356.97;;;67.27;;
26359;SDS011;14063;41.426;13.854;2023-01-09T08:04:38;355.03;;;57.97;;
26359;SDS011;14063;41.426;13.854;2023-01-09T08:07:04;353.50;;;57.50;;
26359;SDS011;14063;41.426;13.854;2023-01-09T08:09:30;359.00;;;59.67;;
26359;SDS011;14063;41.426;13.854;2023-01-09T08:11:56;352.27;;;68.73;;
26359;SDS011;14063;41.426;13.854;2023-01-09T08:14:23;354.70;;;63.97;;
26359;SDS011;14063;41.426;13.854;2023-01-09T08:16:49;346.47;;;59.17;;
26359;SDS011;14063;41.426;13.854;2023-01-09T08:19:15;357.53;;;79.83;;
26359;SDS011;14063;41.426;13.854;2023-01-09T08:21:41;352.83;;;61.87;;
26359;SDS011;14063;41.426;13.854;2023-01-09T08:24:08;352.53;;;59.80;;
26359;SDS011;14063;41.426;13.854;2023-01-09T08:26:34;363.13;;;62.00;;
26359;SDS011;14063;41.426;13.854;2023-01-09T08:29:03;350.20;;;58.00;;
26359;SDS011;14063;41.426;13.854;2023-01-09T08:31:30;347.60;;;60.47;;
26359;SDS011;14063;41.426;13.854;2023-01-09T08:33:56;347.17;;;61.80;;
26359;SDS011;14063;41.426;13.854;2023-01-09T08:36:23;348.13;;;61.17;;
26359;SDS011;14063;41.426;13.854;2023-01-09T08:38:49;349.10;;;65.70;;
26359;SDS011;14063;41.426;13.854;2023-01-09T08:41:15;345.40;;;59.07;;
26359;SDS011;14063;41.426;13.854;2023-01-09T08:44:00;339.60;;;65.33;;
26359;SDS011;14063;41.426;13.854;2023-01-09T08:46:46;349.73;;;66.33;;
26359;SDS011;14063;41.426;13.854;2023-01-09T08:49:34;343.83;;;58.50;;
26359;SDS011;14063;41.426;13.854;2023-01-09T08:52:01;360.90;;;64.90;;
26359;SDS011;14063;41.426;13.854;2023-01-09T08:54:27;344.17;;;73.40;;
26359;SDS011;14063;41.426;13.854;2023-01-09T08:56:54;345.90;;;58.77;;
26359;SDS011;14063;41.426;13.854;2023-01-09T08:59:20;333.33;;;90.73;;
26359;SDS011;14063;41.426;13.854;2023-01-09T09:01:46;321.30;;;65.40;;
26359;SDS011;14063;41.426;13.854;2023-01-09T09:04:12;347.37;;;59.87;;
26359;SDS011;14063;41.426;13.854;2023-01-09T09:06:39;346.90;;;59.07;;
26359;SDS011;14063;41.426;13.854;2023-01-09T09:09:05;345.47;;;83.27;;
26359;SDS011;14063;41.426;13.854;2023-01-09T09:11:32;323.70;;;64.60;;
26359;SDS011;14063;41.426;13.854;2023-01-09T09:13:58;336.77;;;62.10;;
26359;SDS011;14063;41.426;13.854;2023-01-09T09:16:25;324.87;;;63.93;;
26359;SDS011;14063;41.426;13.854;2023-01-09T09:18:51;313.10;;;63.90;;
26359;SDS011;14063;41.426;13.854;2023-01-09T09:21:17;325.60;;;69.03;;
26359;SDS011;14063;41.426;13.854;2023-01-09T09:23:44;323.03;;;68.70;;
26359;SDS011;14063;41.426;13.854;2023-01-09T09:26:11;306.43;;;59.83;;
26359;SDS011;14063;41.426;13.854;2023-01-09T09:28:37;309.63;;;56.20;;
26359;SDS011;14063;41.426;13.854;2023-01-09T09:31:04;308.40;;;63.90;;
26359;SDS011;14063;41.426;13.854;2023-01-09T09:33:30;315.57;;;67.50;;
26359;SDS011;14063;41.426;13.854;2023-01-09T09:35:57;319.50;;;62.93;;
26359;SDS011;14063;41.426;13.854;2023-01-09T09:38:23;308.77;;;55.67;;
26359;SDS011;14063;41.426;13.854;2023-01-09T09:43:22;308.03;;;74.33;;
26359;SDS011;14063;41.426;13.854;2023-01-09T09:48:51;309.10;;;73.70;;
26359;SDS011;14063;41.426;13.854;2023-01-09T09:51:23;314.17;;;95.33;;
26359;SDS011;14063;41.426;13.854;2023-01-09T09:56:33;311.83;;;68.00;;
26359;SDS011;14063;41.426;13.854;2023-01-09T09:59:05;308.20;;;81.53;;
